Time;durP1;ratioP1;P1;durP2;ratioP2;P2;SDS_P1;SDS_P2;PMS_P1;PMS_P2;Temp;Humidity;BMP_temperature;BMP_pressure;BME280_temperature;BME280_humidity;BME280_pressure;Samples;Min_cycle;Max_cycle;Signal;HPM_P1;HPM_P2
2023/03/31 00:00:24;;;;;;;;;2.25;0.25;;;;;22.69;38.47;99870.63;5021708;28;45511;-74
2023/03/31 00:02:53;;;;;;;;;1.25;1.25;;;;;22.63;38.21;99847.19;5035024;28;45709;-74
2023/03/31 00:05:20;;;;;;;;;6.50;1.25;;;;;22.66;38.15;99832.72;5023712;28;48402;-74
2023/03/31 00:07:48;;;;;;;;;1.75;1.75;;;;;22.60;38.20;99855.47;5018757;28;45691;-74
2023/03/31 00:10:14;;;;;;;;;1.00;0.25;;;;;22.66;37.95;99860.22;5021631;28;45489;-74
2023/03/31 00:12:39;;;;;;;;;0.50;0.50;;;;;22.63;38.47;99857.88;5052572;28;45497;-74
2023/03/31 00:15:05;;;;;;;;;3.00;1.00;;;;;22.63;38.18;99849.88;5027059;28;45990;-74
2023/03/31 00:17:32;;;;;;;;;0.75;0.25;;;;;22.64;38.50;99832.88;5053055;28;45530;-74
2023/03/31 00:19:59;;;;;;;;;2.00;1.00;;;;;22.61;38.13;99789.63;5032827;28;45268;-75
2023/03/31 00:22:26;;;;;;;;;2.75;0.25;;;;;22.55;38.10;99754.56;5030967;28;45546;-74
2023/03/31 00:24:51;;;;;;;;;0.75;0.25;;;;;22.64;38.25;99768.03;5036279;28;47070;-75
2023/03/31 00:27:17;;;;;;;;;2.50;1.00;;;;;22.55;38.54;99743.88;5019746;28;45967;-74
2023/03/31 00:29:42;;;;;;;;;1.75;0.00;;;;;22.46;38.37;99701.25;5020124;28;45470;-75
2023/03/31 00:32:07;;;;;;;;;1.00;1.00;;;;;22.60;38.16;99718.63;5051521;28;45685;-74
2023/03/31 00:34:33;;;;;;;;;1.00;1.00;;;;;22.63;38.51;99713.00;5031237;28;59692;-75
2023/03/31 00:37:01;;;;;;;;;0.00;0.00;;;;;22.57;38.37;99698.41;5022789;28;45626;-75
2023/03/31 00:39:30;;;;;;;;;0.25;0.25;;;;;22.59;38.62;99690.28;5021109;28;45453;-75
2023/03/31 00:41:56;;;;;;;;;1.50;0.25;;;;;22.60;38.10;99690.13;5034466;28;45887;-75
2023/03/31 00:44:24;;;;;;;;;0.00;0.00;;;;;22.62;38.45;99708.66;5028002;28;45816;-75
2023/03/31 00:47:14;;;;;;;;;5.00;0.75;;;;;22.60;38.64;99698.13;5025787;28;45445;-75
2023/03/31 00:49:44;;;;;;;;;1.00;1.00;;;;;22.61;38.50;99698.97;5027747;28;45566;-75
2023/03/31 00:52:14;;;;;;;;;0.00;0.00;;;;;22.61;38.57;99698.97;5033673;28;45404;-75
2023/03/31 00:54:41;;;;;;;;;3.00;0.25;;;;;22.56;38.35;99694.91;5031288;28;45512;-75
2023/03/31 00:57:08;;;;;;;;;1.25;0.25;;;;;22.59;38.15;99675.13;5028096;28;45678;-75
2023/03/31 00:59:37;;;;;;;;;2.25;1.00;;;;;22.58;38.42;99662.78;5017423;28;45536;-75
2023/03/31 01:02:03;;;;;;;;;0.75;0.25;;;;;22.56;38.24;99662.09;5016684;28;45657;-75
2023/03/31 01:04:32;;;;;;;;;0.50;0.50;;;;;22.57;38.65;99663.75;5050426;28;46071;-74
2023/03/31 01:07:05;;;;;;;;;0.00;0.00;;;;;22.57;38.56;99663.75;5021154;28;45325;-74
2023/03/31 01:09:33;;;;;;;;;3.50;1.00;;;;;22.54;38.02;99650.72;5026949;28;45330;-74
2023/03/31 01:12:02;;;;;;;;;1.50;1.00;;;;;22.52;38.25;99642.88;5036071;28;45520;-74
2023/03/31 01:14:28;;;;;;;;;0.00;0.00;;;;;22.56;38.16;99641.59;5018016;28;47340;-74
2023/03/31 01:16:54;;;;;;;;;1.25;0.25;;;;;22.56;38.35;99636.25;5024369;28;45497;-75
2023/03/31 01:19:29;;;;;;;;;0.00;0.00;;;;;22.54;38.46;99645.38;5019736;28;70038;-75
2023/03/31 01:22:22;;;;;;;;;0.50;0.50;;;;;22.55;38.52;99652.41;5031413;28;45245;-75
2023/03/31 01:25:00;;;;;;;;;1.25;1.25;;;;;22.52;38.60;99634.88;5044269;28;46194;-76
2023/03/31 01:27:56;;;;;;;;;0.75;0.50;;;;;22.54;38.13;99637.38;5047851;28;45574;-75
2023/03/31 01:30:51;;;;;;;;;2.00;1.00;;;;;22.54;38.24;99626.72;5040200;28;45577;-75
2023/03/31 01:34:01;;;;;;;;;1.00;0.00;;;;;22.53;38.19;99625.03;5027974;28;45626;-75
2023/03/31 01:37:02;;;;;;;;;3.00;1.25;;;;;22.51;38.34;99627.84;5036100;28;45559;-75
2023/03/31 01:39:42;;;;;;;;;1.00;1.00;;;;;22.51;38.16;99606.53;5032495;28;45943;-75
2023/03/31 01:42:26;;;;;;;;;2.00;1.00;;;;;22.51;38.56;99603.03;5051022;28;45273;-75
2023/03/31 01:45:16;;;;;;;;;1.00;1.00;;;;;22.50;38.14;99598.66;5049904;28;45695;-74
2023/03/31 01:47:47;;;;;;;;;1.75;0.00;;;;;22.46;38.50;99587.44;5049952;28;46283;-75
2023/03/31 01:50:35;;;;;;;;;2.00;0.75;;;;;22.50;38.40;99582.66;5029117;28;45266;-75
2023/03/31 01:53:04;;;;;;;;;0.50;0.50;;;;;22.47;38.43;99567.81;5035803;28;45301;-75
2023/03/31 01:55:35;;;;;;;;;1.75;1.00;;;;;22.48;38.06;99560.66;5033437;28;45934;-75
2023/03/31 01:58:20;;;;;;;;;3.25;1.00;;;;;22.49;38.28;99562.34;5033543;28;47403;-74
2023/03/31 02:00:57;;;;;;;;;0.00;0.00;;;;;22.48;38.06;99563.31;5022032;28;45259;-75
2023/03/31 02:03:55;;;;;;;;;2.75;0.50;;;;;22.47;38.06;99557.16;5024790;28;45547;-75
2023/03/31 02:06:27;;;;;;;;;1.25;0.75;;;;;22.47;38.10;99557.16;5040776;28;45263;-75
2023/03/31 02:09:05;;;;;;;;;1.25;1.00;;;;;22.47;38.14;99546.50;5022918;28;46819;-75
2023/03/31 02:11:32;;;;;;;;;1.00;1.00;;;;;22.46;38.57;99539.47;5024077;28;45440;-75
2023/03/31 02:14:01;;;;;;;;;3.25;1.00;;;;;22.45;38.37;99534.28;5016212;28;47145;-75
2023/03/31 02:16:31;;;;;;;;;3.25;1.00;;;;;22.46;38.29;99533.31;5026908;28;46430;-75
2023/03/31 02:19:02;;;;;;;;;2.50;1.00;;;;;22.45;38.49;99526.28;5014930;28;47629;-75
2023/03/31 02:21:32;;;;;;;;;0.75;0.75;;;;;22.43;38.38;99513.09;5019345;28;45733;-75
2023/03/31 02:24:01;;;;;;;;;0.00;0.00;;;;;22.45;38.38;99527.13;5042463;28;45201;-75
2023/03/31 02:26:30;;;;;;;;;3.00;2.00;;;;;22.44;38.66;99521.94;5038401;28;45423;-75
2023/03/31 02:28:56;;;;;;;;;1.00;0.00;;;;;22.44;38.68;99520.13;5035206;28;46212;-75
2023/03/31 02:31:45;;;;;;;;;0.25;0.25;;;;;22.45;38.82;99528.94;5030419;28;46487;-75
2023/03/31 02:34:11;;;;;;;;;3.25;0.75;;;;;22.44;38.91;99512.13;5038419;28;45342;-75
2023/03/31 02:36:37;;;;;;;;;1.00;1.00;;;;;22.43;38.68;99513.09;5035726;28;45524;-74
2023/03/31 02:39:07;;;;;;;;;1.00;1.00;;;;;22.41;38.85;99500.91;5030921;28;52463;-75
2023/03/31 02:41:33;;;;;;;;;1.00;1.00;;;;;22.43;38.29;99488.28;5034284;28;45619;-75
2023/03/31 02:43:59;;;;;;;;;2.25;0.50;;;;;22.44;38.37;99495.28;5021676;28;63116;-74
2023/03/31 02:46:24;;;;;;;;;1.00;0.00;;;;;22.43;38.24;99475.78;5029904;28;45290;-74
2023/03/31 02:48:54;;;;;;;;;1.50;0.50;;;;;22.43;38.38;99472.28;5037703;28;61216;-74
2023/03/31 02:51:30;;;;;;;;;2.50;1.00;;;;;22.43;38.55;99458.94;5042846;28;45365;-74
2023/03/31 02:54:11;;;;;;;;;1.00;0.00;;;;;22.42;38.77;99462.63;5050597;28;45500;-74
2023/03/31 02:56:48;;;;;;;;;1.25;1.00;;;;;22.42;38.75;99444.78;5046266;28;45207;-74
2023/03/31 02:59:29;;;;;;;;;2.00;0.00;;;;;22.41;38.88;99445.75;5038822;28;47027;-74
2023/03/31 03:02:13;;;;;;;;;1.00;1.00;;;;;22.41;38.32;99440.44;5047476;28;45838;-74
2023/03/31 03:04:41;;;;;;;;;3.25;0.75;;;;;22.39;38.78;99434.41;5030502;28;45471;-74
2023/03/31 03:07:38;;;;;;;;;1.25;1.00;;;;;22.40;38.41;99437.91;5051646;28;45532;-74
2023/03/31 03:10:08;;;;;;;;;1.50;0.25;;;;;22.39;38.63;99430.94;5029692;28;45491;-75
2023/03/31 03:12:53;;;;;;;;;2.25;1.25;;;;;22.40;38.88;99424.59;5023117;28;45615;-74
2023/03/31 03:15:21;;;;;;;;;1.00;1.00;;;;;22.39;38.50;99415.75;5044908;28;45300;-74
2023/03/31 03:17:47;;;;;;;;;1.00;0.50;;;;;22.37;38.88;99418.56;5056158;28;47305;-75
2023/03/31 03:20:14;;;;;;;;;1.00;1.00;;;;;22.37;38.57;99415.91;5033664;28;75708;-74
2023/03/31 03:22:40;;;;;;;;;1.00;0.25;;;;;22.36;38.47;99430.25;5020740;28;45837;-74
2023/03/31 03:25:10;;;;;;;;;0.50;0.50;;;;;22.36;38.44;99435.56;5007878;28;45480;-74
2023/03/31 03:27:36;;;;;;;;;1.00;1.00;;;;;22.34;38.43;99416.19;5056546;28;45631;-74
2023/03/31 03:30:03;;;;;;;;;1.00;1.00;;;;;22.33;38.28;99416.38;5063567;28;45436;-74
2023/03/31 03:32:30;;;;;;;;;0.25;0.00;;;;;22.36;38.87;99421.38;5033094;28;45338;-74
2023/03/31 03:34:55;;;;;;;;;2.50;0.00;;;;;22.36;38.66;99410.72;5033640;28;45527;-75
2023/03/31 03:37:21;;;;;;;;;1.00;1.00;;;;;22.35;38.68;99399.22;5052640;28;50201;-75
2023/03/31 03:39:46;;;;;;;;;1.00;1.00;;;;;22.35;38.44;99398.41;5031134;28;45751;-74
2023/03/31 03:42:11;;;;;;;;;2.50;1.00;;;;;22.35;38.95;99396.56;5052457;28;68622;-75
2023/03/31 03:44:37;;;;;;;;;3.00;0.75;;;;;22.33;38.88;99393.22;5045681;28;60430;-75
2023/03/31 03:47:02;;;;;;;;;0.75;0.75;;;;;22.34;38.81;99392.22;5023545;28;71042;-75
2023/03/31 03:49:27;;;;;;;;;0.25;0.25;;;;;22.31;38.34;99389.00;5042233;28;46221;-75
2023/03/31 03:51:53;;;;;;;;;1.50;1.00;;;;;22.34;38.64;99381.53;5038805;28;49369;-74
2023/03/31 03:54:18;;;;;;;;;3.00;1.00;;;;;22.33;38.41;99381.72;5023628;28;57457;-74
2023/03/31 03:56:43;;;;;;;;;0.00;0.00;;;;;22.35;38.90;99382.41;5045460;28;71269;-74
2023/03/31 03:59:10;;;;;;;;;1.25;1.00;;;;;22.33;38.46;99381.72;5038338;28;47038;-73
2023/03/31 04:01:36;;;;;;;;;1.00;1.00;;;;;22.31;38.57;99367.69;5041289;28;45341;-72
2023/03/31 04:04:01;;;;;;;;;3.75;1.00;;;;;22.34;38.69;99383.38;5035890;28;45429;-73
2023/03/31 04:06:27;;;;;;;;;1.00;1.00;;;;;22.31;38.36;99365.88;5046121;28;45872;-74
2023/03/31 04:08:52;;;;;;;;;1.75;1.50;;;;;22.30;38.55;99360.69;5051427;28;68399;-73
2023/03/31 04:11:18;;;;;;;;;1.00;1.00;;;;;22.26;38.71;99359.28;5037078;28;45322;-73
2023/03/31 04:13:44;;;;;;;;;2.00;0.00;;;;;22.29;38.50;99359.88;5035745;28;45415;-74
2023/03/31 04:16:10;;;;;;;;;2.00;0.75;;;;;22.31;38.89;99352.56;5021059;28;45431;-73
2023/03/31 04:18:41;;;;;;;;;0.25;0.25;;;;;22.32;38.74;99350.72;5035983;28;45428;-74
2023/03/31 04:21:14;;;;;;;;;0.75;0.75;;;;;22.30;38.61;99353.53;5017479;28;45465;-74
2023/03/31 04:23:46;;;;;;;;;1.00;1.00;;;;;22.31;38.83;99357.88;5043447;28;45403;-73
2023/03/31 04:26:15;;;;;;;;;1.75;0.00;;;;;22.26;38.78;99349.47;5055292;28;45434;-74
2023/03/31 04:28:45;;;;;;;;;1.00;1.00;;;;;22.30;38.47;99342.03;5032573;28;46322;-73
2023/03/31 04:31:15;;;;;;;;;2.75;1.00;;;;;22.29;38.74;99341.22;5041228;28;45592;-73
2023/03/31 04:33:44;;;;;;;;;4.50;2.00;;;;;22.28;39.00;99328.84;5031431;28;45395;-74
2023/03/31 04:36:16;;;;;;;;;0.00;0.00;;;;;22.30;38.40;99344.72;5052381;28;45343;-73
2023/03/31 04:38:45;;;;;;;;;2.00;1.00;;;;;22.28;38.95;99349.34;5047143;28;46104;-73
2023/03/31 04:41:13;;;;;;;;;1.50;0.50;;;;;22.28;38.96;99330.69;5034605;28;45352;-74
2023/03/31 04:43:39;;;;;;;;;1.50;1.50;;;;;22.29;38.86;99327.03;5044085;28;45455;-74
2023/03/31 04:46:05;;;;;;;;;0.75;0.00;;;;;22.28;38.99;99318.19;5046341;28;45248;-72
2023/03/31 04:48:30;;;;;;;;;1.00;1.00;;;;;22.27;38.94;99329.84;5049089;28;45658;-73
2023/03/31 04:50:55;;;;;;;;;1.00;0.50;;;;;22.28;38.62;99336.03;5033139;28;71486;-73
2023/03/31 04:53:21;;;;;;;;;1.00;1.00;;;;;22.28;38.40;99339.53;5046307;28;60219;-73
2023/03/31 04:55:48;;;;;;;;;1.75;1.00;;;;;22.28;38.50;99338.69;5033628;28;45460;-73
2023/03/31 04:58:13;;;;;;;;;2.00;2.00;;;;;22.28;38.45;99349.34;5034322;28;46334;-73
2023/03/31 05:00:38;;;;;;;;;0.75;0.00;;;;;22.26;38.63;99341.47;5020577;28;72926;-73
2023/03/31 05:03:04;;;;;;;;;1.00;1.00;;;;;22.27;38.84;99326.34;5030205;28;47207;-73
2023/03/31 05:05:29;;;;;;;;;2.75;1.25;;;;;22.25;38.48;99339.78;5033586;28;62360;-73
2023/03/31 05:07:55;;;;;;;;;2.25;1.00;;;;;22.26;39.03;99319.31;5055376;28;45474;-73
2023/03/31 05:10:20;;;;;;;;;1.00;1.00;;;;;22.27;38.92;99345.81;5039359;28;45452;-73
2023/03/31 05:12:46;;;;;;;;;2.75;1.25;;;;;22.26;38.49;99324.66;5030564;28;45376;-73
2023/03/31 05:15:11;;;;;;;;;1.25;1.00;;;;;22.26;38.69;99319.31;5055438;28;62798;-73
2023/03/31 05:17:36;;;;;;;;;3.50;1.50;;;;;22.26;38.42;99325.47;5020219;28;47255;-74
2023/03/31 05:20:07;;;;;;;;;1.50;1.50;;;;;22.26;38.88;99324.66;5057500;28;45459;-73
2023/03/31 05:22:37;;;;;;;;;3.25;1.75;;;;;22.21;38.51;99318.94;5034494;28;45409;-74
2023/03/31 05:25:04;;;;;;;;;1.50;1.00;;;;;22.26;38.62;99308.66;5037916;28;45566;-74
2023/03/31 05:27:29;;;;;;;;;2.00;1.50;;;;;22.25;38.76;99313.13;5034768;28;45370;-74
2023/03/31 05:29:54;;;;;;;;;2.00;1.00;;;;;22.24;38.86;99313.28;5037740;28;45387;-74
2023/03/31 05:32:20;;;;;;;;;3.00;1.75;;;;;22.24;38.84;99319.47;5039391;28;57915;-73
2023/03/31 05:34:45;;;;;;;;;2.00;1.50;;;;;22.23;38.71;99307.13;5051291;28;45287;-73
2023/03/31 05:37:11;;;;;;;;;2.00;1.00;;;;;22.21;38.88;99295.78;5048542;28;73382;-73
2023/03/31 05:39:36;;;;;;;;;2.50;1.00;;;;;22.24;38.82;99315.94;5033761;28;68251;-73
2023/03/31 05:42:02;;;;;;;;;1.25;1.00;;;;;22.22;38.82;99310.75;5026750;28;69031;-73
2023/03/31 05:44:27;;;;;;;;;4.50;1.50;;;;;22.20;38.79;99299.41;5047720;28;45567;-74
2023/03/31 05:46:53;;;;;;;;;2.00;1.00;;;;;22.19;38.87;99295.94;5020158;28;52961;-74
2023/03/31 05:49:19;;;;;;;;;1.00;1.00;;;;;22.21;38.88;99301.13;5050078;28;45269;-74
2023/03/31 05:51:44;;;;;;;;;4.25;1.00;;;;;22.23;38.96;99298.28;5036418;28;45420;-74
2023/03/31 05:54:10;;;;;;;;;2.25;1.00;;;;;22.21;38.78;99301.13;5033495;28;45428;-74
2023/03/31 05:56:35;;;;;;;;;2.25;1.00;;;;;22.23;38.96;99301.78;5030683;28;47072;-74
2023/03/31 05:59:00;;;;;;;;;6.25;1.00;;;;;22.22;38.70;99305.44;5052764;28;66748;-74
2023/03/31 06:01:26;;;;;;;;;3.50;2.00;;;;;22.18;38.43;99296.91;5033153;28;45722;-74
2023/03/31 06:03:51;;;;;;;;;3.75;1.00;;;;;22.23;38.65;99311.63;5030737;28;45615;-73
2023/03/31 06:06:17;;;;;;;;;3.00;1.00;;;;;22.21;38.88;99309.09;5027772;28;46931;-73
2023/03/31 06:08:43;;;;;;;;;1.50;1.00;;;;;22.22;38.75;99325.91;5032911;28;45399;-76
2023/03/31 06:11:11;;;;;;;;;3.75;1.00;;;;;22.22;38.46;99315.25;5040053;28;45246;-74
2023/03/31 06:13:37;;;;;;;;;6.50;2.00;;;;;22.19;38.52;99306.59;5027788;28;45261;-74
2023/03/31 06:16:06;;;;;;;;;5.00;1.25;;;;;22.20;38.89;99315.41;5022127;28;48319;-77
2023/03/31 06:18:34;;;;;;;;;5.50;3.50;;;;;22.22;38.65;99296.59;5011183;28;46100;-76
2023/03/31 06:20:59;;;;;;;;;4.50;2.00;;;;;22.22;38.19;99299.28;5024853;28;45326;-80
2023/03/31 06:23:25;;;;;;;;;5.50;2.25;;;;;22.21;37.80;99303.78;5049319;28;51775;-79
2023/03/31 06:25:51;;;;;;;;;2.75;0.50;;;;;22.19;38.06;99300.44;5032044;28;45550;-79
2023/03/31 06:28:17;;;;;;;;;6.75;4.00;;;;;22.19;38.10;99300.44;5050113;28;47009;-78
2023/03/31 06:30:42;;;;;;;;;6.00;2.00;;;;;22.20;37.60;99302.09;5030497;28;45384;-80
2023/03/31 06:33:08;;;;;;;;;5.25;2.00;;;;;22.22;37.86;99302.78;5036364;28;45527;-77
2023/03/31 06:35:37;;;;;;;;;6.75;2.25;;;;;22.22;37.71;99308.09;5032129;28;51011;-76
2023/03/31 06:38:02;;;;;;;;;4.75;4.00;;;;;22.24;37.92;99307.94;5028880;28;45258;-74
2023/03/31 06:40:27;;;;;;;;;4.25;2.75;;;;;22.22;37.72;99297.44;5051275;28;45372;-73
2023/03/31 06:42:53;;;;;;;;;4.50;2.00;;;;;22.28;37.71;99318.19;5050532;28;72405;-80
2023/03/31 06:45:18;;;;;;;;;5.25;2.00;;;;;22.28;37.32;99309.38;5052091;28;73462;-76
2023/03/31 06:47:43;;;;;;;;;7.75;3.00;;;;;22.31;37.31;99311.72;5031692;28;50985;-73
2023/03/31 06:50:09;;;;;;;;;3.75;2.00;;;;;22.32;37.33;99316.06;5044407;28;45463;-73
2023/03/31 06:52:35;;;;;;;;;3.50;2.00;;;;;22.30;37.34;99294.91;5032757;28;45293;-77
2023/03/31 06:55:01;;;;;;;;;4.75;2.00;;;;;22.35;37.81;99315.78;5036609;28;46058;-73
2023/03/31 06:57:27;;;;;;;;;3.50;2.00;;;;;22.41;37.72;99315.16;5033486;28;45528;-74
2023/03/31 06:59:52;;;;;;;;;4.50;3.00;;;;;22.41;37.18;99303.66;5030178;28;45385;-72
2023/03/31 07:02:18;;;;;;;;;4.00;2.00;;;;;22.45;37.77;99289.88;5015504;28;59521;-80
2023/03/31 07:04:43;;;;;;;;;5.50;2.00;;;;;22.48;37.68;99304.72;5036617;28;56664;-73
2023/03/31 07:07:09;;;;;;;;;8.25;1.50;;;;;22.53;37.99;99297.94;5058300;28;45370;-72
2023/03/31 07:09:34;;;;;;;;;4.00;2.25;;;;;22.58;37.67;99304.66;5042016;28;45411;-72
2023/03/31 07:12:00;;;;;;;;;6.00;1.25;;;;;22.59;38.07;99288.47;5023716;28;45365;-72
2023/03/31 07:14:25;;;;;;;;;5.00;1.00;;;;;22.64;37.76;99285.34;5044387;28;45478;-72
2023/03/31 07:16:51;;;;;;;;;3.00;1.75;;;;;22.67;37.80;99285.06;5041101;28;45634;-77
2023/03/31 07:19:16;;;;;;;;;3.25;1.00;;;;;22.75;38.57;99291.28;5035228;28;45366;-72
2023/03/31 07:21:41;;;;;;;;;4.00;1.25;;;;;22.82;38.24;99298.66;5011753;28;45441;-79
2023/03/31 07:24:07;;;;;;;;;9.50;2.00;;;;;22.85;38.15;99291.19;5033126;28;76112;-80
2023/03/31 07:26:32;;;;;;;;;7.00;2.75;;;;;22.92;38.02;99296.72;5014624;28;65780;-76
2023/03/31 07:28:58;;;;;;;;;5.25;1.25;;;;;22.97;38.48;99306.94;5020566;28;45470;-79
2023/03/31 07:31:23;;;;;;;;;4.50;1.75;;;;;23.03;38.64;99309.78;5047088;28;45689;-76
2023/03/31 07:33:49;;;;;;;;;2.25;1.25;;;;;23.10;38.53;99318.88;5032984;28;45458;-77
2023/03/31 07:36:14;;;;;;;;;8.25;2.00;;;;;23.16;38.42;99316.59;5031553;28;48452;-86
2023/03/31 07:38:41;;;;;;;;;3.50;0.75;;;;;23.18;38.08;99306.56;5042822;28;45256;-79
2023/03/31 07:41:09;;;;;;;;;2.50;1.50;;;;;23.25;38.16;99300.47;5031080;28;45487;-72
2023/03/31 07:43:35;;;;;;;;;1.75;1.00;;;;;23.29;38.44;99301.81;5052147;28;45446;-75
2023/03/31 07:46:00;;;;;;;;;3.25;1.25;;;;;23.30;38.63;99314.19;5023480;28;45350;-78
2023/03/31 07:48:27;;;;;;;;;7.50;2.00;;;;;23.38;38.50;99328.56;5038286;28;67606;-85
2023/03/31 07:50:53;;;;;;;;;5.50;1.00;;;;;23.42;38.42;99313.91;5032843;28;45246;-80
2023/03/31 07:53:18;;;;;;;;;2.00;0.75;;;;;23.47;38.11;99320.44;5042843;28;45872;-80
2023/03/31 07:55:43;;;;;;;;;2.50;2.00;;;;;23.51;38.51;99323.63;5032302;28;45452;-79
2023/03/31 07:58:10;;;;;;;;;5.25;2.00;;;;;23.50;38.41;99321.97;5049844;28;50996;-76
2023/03/31 08:00:36;;;;;;;;;4.50;1.00;;;;;23.56;38.37;99325.81;5051207;28;45521;-77
2023/03/31 08:03:01;;;;;;;;;1.00;1.00;;;;;23.58;38.10;99330.00;5035367;28;46250;-80
2023/03/31 08:05:26;;;;;;;;;3.75;1.75;;;;;23.61;37.80;99316.31;5043716;28;45265;-75
2023/03/31 08:07:52;;;;;;;;;3.25;1.00;;;;;23.57;37.91;99292.75;5029586;28;49830;-76
2023/03/31 08:10:22;;;;;;;;;2.25;1.00;;;;;23.67;37.79;99318.38;5046037;28;45372;-76
2023/03/31 08:12:48;;;;;;;;;1.75;1.50;;;;;23.67;38.01;99306.81;5035993;28;45567;-83
2023/03/31 08:15:14;;;;;;;;;6.50;1.50;;;;;23.76;37.50;99326.41;5037686;28;45222;-86
2023/03/31 08:17:42;;;;;;;;;3.00;1.25;;;;;23.77;37.59;99306.72;5053480;28;45322;-82
2023/03/31 08:20:09;;;;;;;;;4.00;1.00;;;;;23.82;37.54;99326.63;5037825;28;51837;-73
2023/03/31 08:22:35;;;;;;;;;0.25;0.25;;;;;23.71;37.39;99302.84;5018830;28;47050;-75
2023/03/31 08:25:01;;;;;;;;;6.50;1.25;;;;;23.83;37.32;99322.09;5042136;28;45678;-74
2023/03/31 08:27:26;;;;;;;;;2.25;0.25;;;;;23.82;37.56;99310.59;5026311;28;45550;-76
2023/03/31 08:29:52;;;;;;;;;1.50;1.00;;;;;23.87;37.57;99312.78;5050627;28;45468;-83
2023/03/31 08:32:17;;;;;;;;;4.00;1.00;;;;;23.85;37.45;99312.09;5035924;28;57740;-74
2023/03/31 08:34:44;;;;;;;;;3.25;1.25;;;;;23.87;37.42;99296.75;5021369;28;55488;-75
2023/03/31 08:37:10;;;;;;;;;1.75;1.00;;;;;23.86;37.27;99301.25;5034271;28;45531;-74
2023/03/31 08:39:36;;;;;;;;;1.25;1.25;;;;;23.84;37.80;99300.56;5040306;28;55798;-87
2023/03/31 08:42:41;;;;;;;;;2.00;0.00;;;;;23.93;37.20;99317.47;5034266;28;46085;-75
2023/03/31 08:45:21;;;;;;;;;1.25;0.25;;;;;23.94;37.27;99304.94;5033041;28;45364;-74
2023/03/31 08:47:50;;;;;;;;;2.75;0.75;;;;;23.94;37.33;99315.63;5027090;28;45561;-74
2023/03/31 08:50:19;;;;;;;;;2.00;0.25;;;;;23.94;37.31;99303.13;5034911;28;45275;-74
2023/03/31 08:52:49;;;;;;;;;0.75;0.25;;;;;23.92;37.21;99310.47;5029234;28;45389;-73
2023/03/31 08:55:21;;;;;;;;;2.00;1.00;;;;;23.95;37.19;99315.47;5026779;28;45473;-75
2023/03/31 08:58:12;;;;;;;;;2.50;1.00;;;;;23.95;37.37;99303.94;5033044;28;45539;-78
2023/03/31 09:01:15;;;;;;;;;1.50;1.00;;;;;23.94;37.30;99313.81;5053730;28;46044;-79
2023/03/31 09:04:05;;;;;;;;;4.00;0.75;;;;;23.95;37.42;99302.09;5010347;28;45420;-77
2023/03/31 09:06:38;;;;;;;;;6.75;2.00;;;;;23.95;37.39;99296.75;5035712;28;45756;-80
2023/03/31 09:09:09;;;;;;;;;4.75;1.00;;;;;23.96;37.54;99305.63;5034640;28;45491;-70
2023/03/31 09:12:02;;;;;;;;;2.00;0.75;;;;;23.94;37.42;99289.75;5027031;28;45230;-72
2023/03/31 09:14:34;;;;;;;;;3.50;1.50;;;;;23.98;37.46;99301.78;5041594;28;46617;-75
2023/03/31 09:17:15;;;;;;;;;4.75;1.25;;;;;23.97;37.53;99307.28;5041023;28;45730;-74
2023/03/31 09:20:00;;;;;;;;;0.50;0.50;;;;;24.01;37.50;99300.63;5023347;28;45301;-72
2023/03/31 09:22:31;;;;;;;;;4.50;1.00;;;;;24.01;37.57;99306.81;5021642;28;45637;-74
2023/03/31 09:25:17;;;;;;;;;3.25;0.00;;;;;24.07;37.09;99299.97;5038011;28;45492;-72
2023/03/31 09:27:43;;;;;;;;;1.00;0.25;;;;;24.08;37.23;99309.66;5026996;28;45683;-69
2023/03/31 09:30:20;;;;;;;;;3.25;1.00;;;;;24.10;37.32;99312.16;5027583;28;45503;-74
2023/03/31 09:32:48;;;;;;;;;1.75;0.50;;;;;24.10;37.23;99310.34;5043703;28;45470;-74
2023/03/31 09:35:20;;;;;;;;;1.50;0.25;;;;;24.13;37.53;99323.38;5050070;28;46903;-71
2023/03/31 09:37:46;;;;;;;;;4.00;1.00;;;;;24.14;37.28;99324.22;5025207;28;45364;-74
2023/03/31 09:40:19;;;;;;;;;2.25;1.25;;;;;24.14;37.38;99326.91;5030848;28;45293;-73
2023/03/31 09:42:47;;;;;;;;;1.25;0.25;;;;;24.14;37.23;99314.34;5018567;28;45289;-69
2023/03/31 09:45:17;;;;;;;;;2.00;0.25;;;;;24.17;37.22;99306.00;5028955;28;46206;-72
2023/03/31 09:47:50;;;;;;;;;1.75;0.25;;;;;24.16;37.35;99316.88;5025641;28;46357;-71
2023/03/31 09:50:15;;;;;;;;;5.00;1.25;;;;;24.18;37.17;99310.34;5037219;28;45578;-71
2023/03/31 09:52:52;;;;;;;;;2.75;1.50;;;;;24.20;37.15;99311.00;5038632;28;45612;-79
2023/03/31 09:55:34;;;;;;;;;2.75;0.25;;;;;24.21;37.13;99299.31;5026185;28;45484;-69
2023/03/31 09:58:03;;;;;;;;;3.00;1.00;;;;;24.21;37.19;99285.97;5049900;28;45387;-70
2023/03/31 10:00:28;;;;;;;;;4.00;1.00;;;;;24.22;36.92;99286.78;5028432;28;45449;-75
2023/03/31 10:02:54;;;;;;;;;1.75;0.25;;;;;24.23;37.14;99283.97;5038472;28;45500;-79
2023/03/31 10:05:22;;;;;;;;;3.50;1.00;;;;;24.24;37.23;99277.63;5037151;28;45444;-75
2023/03/31 10:07:47;;;;;;;;;4.75;0.25;;;;;24.23;37.51;99285.81;5041698;28;45892;-75
2023/03/31 10:10:31;;;;;;;;;2.50;0.50;;;;;24.26;37.76;99278.28;5029296;28;65109;-70
2023/03/31 10:12:59;;;;;;;;;0.25;0.25;;;;;24.28;37.74;99290.66;5011213;28;45412;-78
2023/03/31 10:15:25;;;;;;;;;4.75;1.00;;;;;24.26;37.68;99286.31;5036870;28;46207;-74
2023/03/31 10:17:51;;;;;;;;;1.75;1.00;;;;;24.28;37.93;99272.78;5026794;28;45510;-72
2023/03/31 10:20:22;;;;;;;;;0.25;0.25;;;;;24.28;38.45;99285.31;5023926;28;45424;-74
2023/03/31 10:22:47;;;;;;;;;3.75;2.00;;;;;24.26;38.69;99285.47;5031145;28;45330;-72
2023/03/31 10:25:21;;;;;;;;;1.00;1.00;;;;;24.26;39.09;99288.16;5020768;28;48168;-73
2023/03/31 10:27:51;;;;;;;;;2.25;2.25;;;;;24.29;39.12;99292.31;5043097;28;45222;-73
2023/03/31 10:30:34;;;;;;;;;1.00;1.00;;;;;24.31;38.97;99284.97;5048887;28;45627;-74
2023/03/31 10:33:00;;;;;;;;;3.00;2.25;;;;;24.30;38.90;99285.97;5026322;28;45349;-73
2023/03/31 10:35:32;;;;;;;;;4.75;1.25;;;;;24.28;39.20;99280.81;5025458;28;46335;-77
2023/03/31 10:38:02;;;;;;;;;1.75;1.75;;;;;24.26;39.43;99285.47;5035892;28;45739;-77
2023/03/31 10:40:30;;;;;;;;;2.00;2.00;;;;;24.26;39.58;99291.66;5041416;28;45278;-77
2023/03/31 10:43:17;;;;;;;;;4.25;1.25;;;;;24.22;39.32;99271.59;5018662;28;45479;-77
2023/03/31 10:45:42;;;;;;;;;2.75;1.75;;;;;24.25;39.32;99281.94;5025355;28;46231;-77
2023/03/31 10:48:25;;;;;;;;;4.50;1.50;;;;;24.24;39.30;99299.00;5024035;28;45405;-76
2023/03/31 10:50:50;;;;;;;;;4.75;0.25;;;;;24.23;39.31;99275.09;5033401;28;45375;-77
2023/03/31 10:53:16;;;;;;;;;0.25;0.25;;;;;24.22;39.45;99276.97;5039015;28;63274;-77
2023/03/31 10:56:13;;;;;;;;;2.25;2.00;;;;;24.20;39.18;99288.81;5013243;28;47096;-78
2023/03/31 10:58:50;;;;;;;;;2.75;0.25;;;;;24.17;39.20;99283.78;5030867;28;45404;-77
2023/03/31 11:01:37;;;;;;;;;1.25;1.00;;;;;24.16;38.96;99274.09;5039755;28;45555;-74
2023/03/31 14:41:14;;;;;;;;;0.50;0.00;;;;;21.24;42.94;99297.94;5066016;28;45387;-74
2023/03/31 14:43:49;;;;;;;;;0.50;0.00;;;;;21.39;43.04;99278.88;5046366;28;45528;-74
2023/03/31 14:46:18;;;;;;;;;0.25;0.00;;;;;21.61;42.49;99289.13;5042068;28;45390;-75
2023/03/31 14:48:46;;;;;;;;;1.50;0.00;;;;;21.81;42.49;99294.34;5032823;28;45434;-75
2023/03/31 14:51:13;;;;;;;;;0.25;0.00;;;;;21.98;42.71;99293.53;5056525;28;45316;-75
2023/03/31 14:53:39;;;;;;;;;1.25;0.00;;;;;22.15;42.33;99283.91;5044384;28;45839;-73
2023/03/31 14:56:07;;;;;;;;;0.50;0.50;;;;;22.30;42.33;99276.25;5053809;28;45414;-74
2023/03/31 14:58:35;;;;;;;;;0.25;0.00;;;;;22.47;42.38;99292.38;5044522;28;45442;-74
2023/03/31 15:01:02;;;;;;;;;1.00;0.00;;;;;22.58;41.93;99280.66;5060548;28;45279;-74
2023/03/31 15:03:29;;;;;;;;;1.00;0.00;;;;;22.74;41.61;99294.94;5048219;28;45484;-75
2023/03/31 15:05:57;;;;;;;;;0.00;0.00;;;;;22.83;41.03;99295.84;5035941;28;45454;-76
2023/03/31 15:08:23;;;;;;;;;1.00;0.00;;;;;22.95;41.03;99299.09;5033584;28;45383;-76
2023/03/31 15:11:03;;;;;;;;;1.00;1.00;;;;;23.02;40.86;99299.28;5052520;28;45317;-76
2023/03/31 15:13:50;;;;;;;;;0.00;0.00;;;;;23.12;40.88;99318.72;5049094;28;45836;-75
2023/03/31 15:16:34;;;;;;;;;1.50;0.00;;;;;23.20;40.91;99304.63;5042534;28;45548;-75
2023/03/31 15:19:03;;;;;;;;;0.75;0.00;;;;;23.25;40.86;99319.16;5031942;28;45462;-72
2023/03/31 15:21:32;;;;;;;;;0.00;0.00;;;;;23.27;40.24;99319.00;5059342;28;46165;-83
2023/03/31 15:23:58;;;;;;;;;4.75;0.00;;;;;23.35;40.40;99321.69;5037307;28;45880;-86